createdAt,value
2023-05-24T00:00:16.003Z,99.90
2023-05-24T00:02:44.588Z,99.50
2023-05-24T00:05:14.850Z,82.20
2023-05-24T00:07:44.592Z,67.50
2023-05-24T00:10:13.909Z,87.30
2023-05-24T00:12:42.334Z,93.40
2023-05-24T00:15:11.774Z,58.30
2023-05-24T00:17:41.556Z,1.00
2023-05-24T00:20:14.353Z,1.00
2023-05-24T00:22:44.483Z,1.00
2023-05-24T00:25:12.939Z,1.00
2023-05-24T00:27:41.193Z,1.00
2023-05-24T00:30:10.114Z,1.00
2023-05-24T00:32:38.481Z,1.00
2023-05-24T00:35:09.987Z,1.00
2023-05-24T00:37:41.830Z,1.00
2023-05-24T00:40:12.818Z,22.00
2023-05-24T00:42:41.428Z,31.60
2023-05-24T00:45:11.352Z,33.00
2023-05-24T00:47:39.938Z,34.90
2023-05-24T00:50:13.035Z,56.40
2023-05-24T00:52:43.473Z,31.10
2023-05-24T00:55:17.113Z,28.60
2023-05-24T00:57:46.289Z,34.50
2023-05-24T01:00:18.468Z,55.30
2023-05-24T01:02:48.341Z,79.10
2023-05-24T01:05:17.346Z,43.60
2023-05-24T01:08:04.014Z,71.70
2023-05-24T01:10:52.380Z,80.10
2023-05-24T01:13:31.330Z,34.30
2023-05-24T01:16:06.526Z,14.30
2023-05-24T01:18:40.892Z,1.00
2023-05-24T01:21:26.493Z,1.00
2023-05-24T01:24:14.530Z,1.00
2023-05-24T01:27:05.396Z,1.00
2023-05-24T01:29:35.620Z,1.00
2023-05-24T01:32:05.144Z,11.70
2023-05-24T01:34:33.526Z,33.90
2023-05-24T01:37:01.907Z,63.10
2023-05-24T01:39:31.734Z,62.80
2023-05-24T01:42:16.155Z,47.60
2023-05-24T01:44:52.241Z,71.10
2023-05-24T01:47:35.604Z,96.00
2023-05-24T01:50:15.732Z,98.40
2023-05-24T01:52:48.104Z,93.00
2023-05-24T01:55:19.418Z,99.90
2023-05-24T01:57:52.786Z,99.90
2023-05-24T02:00:23.113Z,90.40
2023-05-24T02:02:53.075Z,48.40
2023-05-24T02:05:22.466Z,54.60
2023-05-24T02:07:50.999Z,75.70
2023-05-24T02:10:19.363Z,27.30
2023-05-24T02:12:49.008Z,1.00
2023-05-24T02:15:17.257Z,1.00
2023-05-24T02:17:45.980Z,1.00
2023-05-24T02:20:14.960Z,1.00
2023-05-24T02:22:43.352Z,1.00
2023-05-24T02:25:11.747Z,1.00
2023-05-24T02:27:40.052Z,1.00
2023-05-24T02:30:11.322Z,1.00
2023-05-24T02:32:39.650Z,12.10
2023-05-24T02:35:08.651Z,32.50
2023-05-24T02:37:36.921Z,24.60
2023-05-24T02:40:06.455Z,34.10
2023-05-24T02:42:34.849Z,1.00
2023-05-24T02:45:03.514Z,1.00
2023-05-24T02:47:33.256Z,1.00
2023-05-24T02:50:01.621Z,1.00
2023-05-24T02:52:29.918Z,1.00
2023-05-24T02:54:58.160Z,1.00
2023-05-24T02:57:26.775Z,1.00
2023-05-24T02:59:55.876Z,1.00
2023-05-24T03:02:24.227Z,1.00
2023-05-24T03:04:53.925Z,1.00
2023-05-24T03:07:24.957Z,1.00
2023-05-24T03:09:53.141Z,1.00
2023-05-24T03:12:21.365Z,1.00
2023-05-24T03:14:50.046Z,1.00
2023-05-24T03:17:18.363Z,1.00
2023-05-24T03:19:46.691Z,1.00
2023-05-24T03:22:16.655Z,1.00
2023-05-24T03:24:46.272Z,1.00
2023-05-24T03:27:17.486Z,1.00
2023-05-24T03:29:45.744Z,1.00
2023-05-24T03:32:14.000Z,1.00
2023-05-24T03:34:42.318Z,1.00
2023-05-24T03:37:10.695Z,1.00
2023-05-24T03:39:40.276Z,1.00
2023-05-24T03:42:09.082Z,1.00
2023-05-24T03:44:37.386Z,1.00
2023-05-24T03:47:06.396Z,1.00
2023-05-24T03:49:34.689Z,1.00
2023-05-24T03:52:03.464Z,1.00
2023-05-24T03:54:31.834Z,1.00
2023-05-24T03:57:02.614Z,1.00
2023-05-24T03:59:31.642Z,1.00
2023-05-24T04:02:02.088Z,1.00
2023-05-24T04:07:18.297Z,1.00
2023-05-24T04:09:46.601Z,1.00
2023-05-24T04:12:16.270Z,99.90
2023-05-24T04:14:44.555Z,1.00
2023-05-24T04:17:13.563Z,1.00
2023-05-24T04:19:42.033Z,99.90
2023-05-24T04:22:10.511Z,99.90
2023-05-24T04:24:38.742Z,99.90
2023-05-24T04:27:08.027Z,99.90
2023-05-24T04:29:37.621Z,99.90
2023-05-24T04:32:06.587Z,1.00
2023-05-24T04:34:35.712Z,99.90
2023-05-24T04:37:04.418Z,99.90
2023-05-24T04:39:32.634Z,99.90
2023-05-24T04:42:00.893Z,1.00
2023-05-24T04:44:29.128Z,99.90
2023-05-24T04:46:58.884Z,44.80
2023-05-24T04:49:27.129Z,33.70
2023-05-24T04:51:55.514Z,99.90
2023-05-24T04:54:23.807Z,1.00
2023-05-24T04:56:52.279Z,99.90
2023-05-24T04:59:20.473Z,1.00
2023-05-24T05:01:48.927Z,1.00
2023-05-24T05:04:18.864Z,99.90
2023-05-24T05:06:48.176Z,99.90
2023-05-24T05:09:16.378Z,99.90
2023-05-24T05:11:44.760Z,99.90
2023-05-24T05:14:13.041Z,99.90
2023-05-24T05:16:41.593Z,99.90
2023-05-24T05:19:10.119Z,99.90
2023-05-24T05:21:39.895Z,99.90
2023-05-24T05:24:09.096Z,99.90
2023-05-24T05:26:37.425Z,99.90
2023-05-24T05:29:05.682Z,99.90
2023-05-24T05:31:33.924Z,99.90
2023-05-24T05:34:02.141Z,99.90
2023-05-24T05:36:30.425Z,99.90
2023-05-24T05:38:59.982Z,99.90
2023-05-24T05:41:28.510Z,99.90
2023-05-24T05:43:56.760Z,99.90
2023-05-24T05:46:24.958Z,99.90
2023-05-24T05:48:53.216Z,99.90
2023-05-24T05:51:21.381Z,99.90
2023-05-24T05:53:49.680Z,99.90
2023-05-24T05:56:19.429Z,99.90
2023-05-24T05:58:47.631Z,99.90
2023-05-24T06:01:16.832Z,99.90
2023-05-24T06:03:45.713Z,99.90
2023-05-24T06:06:14.118Z,99.90
2023-05-24T06:08:42.487Z,99.90
2023-05-24T06:11:10.966Z,99.90
2023-05-24T06:13:40.733Z,99.90
2023-05-24T06:16:10.019Z,99.90
2023-05-24T06:18:38.541Z,99.90
2023-05-24T06:21:10.498Z,99.90
2023-05-24T06:23:39.158Z,99.90
2023-05-24T06:26:09.593Z,99.90
2023-05-24T06:28:38.352Z,99.90
2023-05-24T06:31:08.184Z,99.90
2023-05-24T06:33:37.888Z,99.90
2023-05-24T06:36:06.963Z,99.90
2023-05-24T06:38:36.003Z,99.90
2023-05-24T06:41:04.239Z,99.90
2023-05-24T06:43:33.358Z,99.90
2023-05-24T06:46:01.665Z,99.90
2023-05-24T06:48:31.333Z,99.90
2023-05-24T06:50:59.614Z,99.90
2023-05-24T06:53:27.931Z,99.90
2023-05-24T06:55:57.667Z,99.90
2023-05-24T06:58:26.080Z,99.90
2023-05-24T07:00:54.478Z,99.90
2023-05-24T07:03:23.398Z,99.90
2023-05-24T07:05:53.082Z,99.90
2023-05-24T07:08:21.751Z,99.90
2023-05-24T07:10:50.038Z,99.90
2023-05-24T07:13:18.296Z,99.90
2023-05-24T07:15:47.882Z,99.90
2023-05-24T07:18:16.415Z,99.90
2023-05-24T07:20:45.079Z,99.90
2023-05-24T07:23:15.100Z,99.90
2023-05-24T07:25:43.297Z,99.90
2023-05-24T07:28:14.178Z,99.90
2023-05-24T07:30:42.524Z,99.90
2023-05-24T07:33:11.382Z,99.90
2023-05-24T07:35:40.200Z,99.90
2023-05-24T07:38:08.693Z,99.90
2023-05-24T07:40:38.326Z,99.90
2023-05-24T07:43:06.758Z,99.90
2023-05-24T07:45:35.024Z,99.90
2023-05-24T07:48:03.288Z,99.90
2023-05-24T07:50:31.932Z,99.90
2023-05-24T07:53:00.277Z,99.90
2023-05-24T07:55:28.568Z,99.90
2023-05-24T07:57:58.362Z,99.90
2023-05-24T08:00:26.804Z,99.90
2023-05-24T08:02:55.100Z,99.90
2023-05-24T08:05:23.942Z,99.90
2023-05-24T08:07:52.367Z,99.90
2023-05-24T08:10:21.832Z,99.90
2023-05-24T08:12:51.551Z,99.90
2023-05-24T08:15:21.299Z,99.90
2023-05-24T08:17:50.247Z,99.90
2023-05-24T08:20:18.891Z,99.90
2023-05-24T08:22:48.303Z,99.90
2023-05-24T08:25:16.570Z,99.90
2023-05-24T08:27:44.811Z,99.90
2023-05-24T08:30:15.145Z,99.90
2023-05-24T08:32:44.933Z,99.90
2023-05-24T08:35:20.951Z,99.90
2023-05-24T08:37:50.250Z,99.90
2023-05-24T08:40:19.091Z,99.90
2023-05-24T08:42:47.625Z,99.90
2023-05-24T08:45:16.789Z,99.90
2023-05-24T08:47:48.767Z,99.90
2023-05-24T08:50:17.046Z,99.90
2023-05-24T08:52:46.958Z,99.90
2023-05-24T08:55:17.057Z,99.90
2023-05-24T08:57:47.785Z,99.90
2023-05-24T09:00:18.080Z,99.90
2023-05-24T09:02:48.331Z,99.90
2023-05-24T09:05:17.895Z,99.90
2023-05-24T09:07:47.340Z,99.90
2023-05-24T09:10:16.756Z,99.90
2023-05-24T09:12:52.016Z,99.90
2023-05-24T09:15:22.454Z,99.90
2023-05-24T09:17:52.079Z,99.90
2023-05-24T09:20:22.307Z,99.90
2023-05-24T09:22:54.294Z,99.90
2023-05-24T09:25:22.592Z,99.90
2023-05-24T09:27:52.971Z,99.90
2023-05-24T09:30:22.178Z,99.90
2023-05-24T09:33:00.656Z,99.90
2023-05-24T09:35:29.718Z,99.90
2023-05-24T09:37:59.935Z,98.70
2023-05-24T09:40:30.062Z,99.90
2023-05-24T09:43:07.491Z,99.70
2023-05-24T09:45:43.011Z,90.30
2023-05-24T09:48:15.265Z,96.70
2023-05-24T09:50:45.787Z,99.90
2023-05-24T09:53:14.528Z,99.90
2023-05-24T09:55:43.109Z,99.90
2023-05-24T09:58:12.928Z,99.90
2023-05-24T10:00:43.440Z,99.90
2023-05-24T10:03:15.212Z,99.90
2023-05-24T10:05:46.584Z,99.90
2023-05-24T10:08:15.523Z,99.90
2023-05-24T10:10:44.894Z,99.90
2023-05-24T10:13:15.969Z,99.90
2023-05-24T10:15:45.500Z,99.90
2023-05-24T10:18:15.501Z,99.90
2023-05-24T10:20:44.574Z,97.80
2023-05-24T10:23:21.667Z,94.70
2023-05-24T10:25:56.499Z,99.90
2023-05-24T10:28:27.258Z,99.90
2023-05-24T10:31:08.493Z,99.90
2023-05-24T10:33:40.107Z,99.90
2023-05-24T10:36:12.889Z,98.40
2023-05-24T10:38:42.011Z,97.20
2023-05-24T10:41:10.666Z,97.00
2023-05-24T10:43:40.325Z,99.90
2023-05-24T10:46:11.273Z,99.90
2023-05-24T10:48:41.991Z,96.40
2023-05-24T10:51:35.066Z,95.60
2023-05-24T10:54:19.225Z,93.70
2023-05-24T10:56:50.233Z,87.60
2023-05-24T10:59:31.640Z,94.90
2023-05-24T11:02:01.090Z,92.80
2023-05-24T11:04:37.655Z,81.40
2023-05-24T11:07:09.809Z,79.30
2023-05-24T11:09:45.852Z,90.10
2023-05-24T11:12:18.506Z,74.70
2023-05-24T11:14:51.389Z,90.10
2023-05-24T11:17:23.094Z,85.10
2023-05-24T11:19:55.166Z,88.70
2023-05-24T11:22:26.803Z,81.20
2023-05-24T11:24:57.598Z,79.40
2023-05-24T11:27:26.972Z,77.10
2023-05-24T11:29:56.044Z,88.60
2023-05-24T11:32:25.204Z,86.20
2023-05-24T11:34:56.295Z,83.50
2023-05-24T11:37:38.376Z,76.70
2023-05-24T11:40:16.410Z,73.60
2023-05-24T11:42:45.560Z,73.30
2023-05-24T11:45:15.730Z,76.20
2023-05-24T11:47:44.175Z,71.70
2023-05-24T11:50:17.702Z,65.60
2023-05-24T11:52:46.027Z,67.30
2023-05-24T11:55:17.169Z,77.00
2023-05-24T11:57:57.213Z,74.00
2023-05-24T12:00:28.840Z,72.70
2023-05-24T12:03:01.758Z,76.70
2023-05-24T12:05:32.852Z,73.80
2023-05-24T12:08:06.866Z,81.20
2023-05-24T12:10:36.977Z,83.40
2023-05-24T12:13:07.176Z,83.90
2023-05-24T12:15:35.659Z,85.50
2023-05-24T12:18:04.186Z,81.70
2023-05-24T12:20:34.189Z,82.30
2023-05-24T12:23:02.753Z,90.10
2023-05-24T12:25:31.130Z,87.00
2023-05-24T12:27:59.524Z,78.10
2023-05-24T12:30:28.636Z,83.50
2023-05-24T12:32:57.770Z,72.50
2023-05-24T12:35:26.344Z,64.00
2023-05-24T12:38:01.188Z,65.50
2023-05-24T12:40:33.763Z,64.20
2023-05-24T12:43:03.745Z,60.20
2023-05-24T12:45:32.715Z,62.90
2023-05-24T12:48:02.819Z,62.30
2023-05-24T12:50:31.626Z,64.50
2023-05-24T12:53:02.040Z,58.20
2023-05-24T12:55:30.603Z,56.00
2023-05-24T12:58:01.790Z,53.90
2023-05-24T13:00:30.824Z,52.70
2023-05-24T13:03:00.138Z,54.30
2023-05-24T13:05:30.169Z,54.60
2023-05-24T13:08:00.248Z,54.80
2023-05-24T13:10:28.679Z,57.30
2023-05-24T13:12:57.486Z,58.30
2023-05-24T13:15:27.203Z,59.70
2023-05-24T13:17:56.226Z,62.70
2023-05-24T13:20:24.768Z,59.80
2023-05-24T13:22:53.514Z,60.10
2023-05-24T13:25:23.588Z,56.90
2023-05-24T13:27:51.988Z,62.20
2023-05-24T13:30:27.442Z,61.00
2023-05-24T13:32:56.616Z,60.10
2023-05-24T13:35:25.562Z,51.80
2023-05-24T13:37:54.823Z,50.40
2023-05-24T13:40:25.147Z,47.40
2023-05-24T13:42:53.915Z,44.50
2023-05-24T13:45:22.607Z,44.00
2023-05-24T13:47:51.655Z,40.50
2023-05-24T13:50:20.457Z,41.80
2023-05-24T13:52:48.798Z,45.40
2023-05-24T13:55:17.203Z,46.10
2023-05-24T13:57:51.207Z,47.60
2023-05-24T14:00:21.594Z,46.80
2023-05-24T14:02:50.340Z,45.90
2023-05-24T14:05:27.440Z,44.10
2023-05-24T14:07:57.598Z,45.50
2023-05-24T14:10:26.284Z,46.70
2023-05-24T14:13:07.955Z,47.10
2023-05-24T14:15:44.845Z,47.20
2023-05-24T14:18:13.928Z,45.00
2023-05-24T14:20:44.181Z,41.20
2023-05-24T14:23:12.953Z,42.20
2023-05-24T14:25:42.283Z,41.80
2023-05-24T14:28:13.817Z,41.10
2023-05-24T14:30:42.368Z,38.00
2023-05-24T14:33:11.556Z,35.40
2023-05-24T14:35:40.708Z,34.20
2023-05-24T14:38:11.455Z,34.80
2023-05-24T14:40:40.945Z,34.60
2023-05-24T14:43:11.609Z,29.80
2023-05-24T14:45:41.721Z,32.50
2023-05-24T14:48:12.506Z,33.70
2023-05-24T14:50:42.039Z,33.60
2023-05-24T14:53:12.211Z,31.30
2023-05-24T14:55:46.565Z,30.90
2023-05-24T14:58:16.527Z,31.90
2023-05-24T15:00:45.198Z,30.20
2023-05-24T15:03:15.006Z,29.10
2023-05-24T15:05:43.876Z,32.10
2023-05-24T15:08:12.608Z,32.80
2023-05-24T15:10:43.781Z,33.20
2023-05-24T15:13:12.729Z,31.80
2023-05-24T15:15:43.399Z,34.10
2023-05-24T15:18:11.740Z,33.30
2023-05-24T15:20:40.236Z,32.70
2023-05-24T15:23:10.653Z,36.70
2023-05-24T15:25:39.244Z,38.40
2023-05-24T15:28:07.830Z,41.30
2023-05-24T15:30:36.056Z,40.50
2023-05-24T15:33:06.153Z,43.30
2023-05-24T15:35:34.546Z,43.20
2023-05-24T15:38:02.849Z,42.90
2023-05-24T15:40:31.186Z,40.60
2023-05-24T15:42:59.985Z,41.80
2023-05-24T15:45:28.276Z,41.30
2023-05-24T15:47:56.747Z,40.40
2023-05-24T15:50:45.662Z,40.70
2023-05-24T15:53:15.229Z,41.90
2023-05-24T15:55:43.924Z,42.30
2023-05-24T15:58:13.506Z,42.80
2023-05-24T16:00:41.965Z,46.70
2023-05-24T16:03:15.378Z,44.80
2023-05-24T16:05:48.614Z,46.20
2023-05-24T16:08:17.260Z,45.30
2023-05-24T16:10:46.254Z,47.60
2023-05-24T16:13:14.798Z,48.20
2023-05-24T16:15:47.489Z,49.10
2023-05-24T16:18:18.477Z,49.80
2023-05-24T16:20:49.501Z,51.70
2023-05-24T16:23:18.187Z,51.60
2023-05-24T16:25:47.080Z,51.10
2023-05-24T16:28:15.537Z,50.40
2023-05-24T16:30:44.148Z,52.10
2023-05-24T16:33:12.655Z,99.90
2023-05-24T16:35:40.994Z,99.90
2023-05-24T16:38:10.732Z,99.90
2023-05-24T16:40:39.029Z,99.90
2023-05-24T16:43:07.477Z,99.90
2023-05-24T16:45:35.767Z,99.90
2023-05-24T16:48:04.222Z,99.90
2023-05-24T16:50:33.686Z,99.90
2023-05-24T16:53:01.957Z,99.90
2023-05-24T16:55:31.837Z,99.90
2023-05-24T16:58:00.321Z,99.90
2023-05-24T17:00:28.962Z,99.90
2023-05-24T17:02:59.438Z,99.90
2023-05-24T17:05:27.902Z,99.90
2023-05-24T17:07:56.984Z,99.90
2023-05-24T17:10:25.928Z,99.90
2023-05-24T17:12:55.681Z,99.90
2023-05-24T17:15:24.599Z,99.90
2023-05-24T17:17:53.211Z,99.90
2023-05-24T17:20:21.736Z,99.90
2023-05-24T17:22:50.588Z,99.90
2023-05-24T17:25:19.290Z,99.90
2023-05-24T17:27:47.608Z,99.90
2023-05-24T17:30:19.817Z,99.90
2023-05-24T17:32:48.158Z,99.90
2023-05-24T17:35:17.019Z,99.90
2023-05-24T17:37:45.299Z,99.90
2023-05-24T17:40:13.825Z,99.90
2023-05-24T17:42:43.182Z,1.00
2023-05-24T17:45:12.674Z,1.00
2023-05-24T17:47:42.396Z,1.00
2023-05-24T17:50:11.976Z,1.00
2023-05-24T17:52:40.426Z,1.00
2023-05-24T17:55:11.099Z,1.00
2023-05-24T17:57:39.500Z,1.00
2023-05-24T18:00:09.509Z,1.00
2023-05-24T18:02:37.967Z,1.00
2023-05-24T18:05:08.764Z,1.00
2023-05-24T18:07:37.438Z,1.00
2023-05-24T18:10:06.759Z,1.00
2023-05-24T18:12:35.044Z,45.00
2023-05-24T18:15:03.475Z,99.90
2023-05-24T18:17:31.773Z,99.90
2023-05-24T18:20:00.415Z,99.90
2023-05-24T18:22:30.665Z,1.00
2023-05-24T18:24:59.593Z,1.00
2023-05-24T18:27:27.856Z,1.00
2023-05-24T18:29:56.179Z,1.00
2023-05-24T18:32:24.849Z,10.90
2023-05-24T18:34:53.466Z,99.90
2023-05-24T18:37:23.336Z,1.00
2023-05-24T18:39:53.137Z,1.00
2023-05-24T18:42:21.465Z,99.90
2023-05-24T18:44:49.880Z,1.00
2023-05-24T18:47:18.329Z,1.00
2023-05-24T18:49:46.733Z,99.90
2023-05-24T18:52:15.104Z,99.90
2023-05-24T18:54:43.442Z,99.90
2023-05-24T18:57:13.522Z,1.00
2023-05-24T18:59:41.808Z,1.00
2023-05-24T19:02:10.310Z,1.00
2023-05-24T19:04:38.724Z,99.90
2023-05-24T19:07:07.232Z,1.00
2023-05-24T19:09:36.656Z,1.00
2023-05-24T19:12:05.732Z,21.80
2023-05-24T19:14:35.795Z,1.00
2023-05-24T19:17:04.295Z,1.00
2023-05-24T19:19:32.729Z,99.90
2023-05-24T19:22:01.220Z,99.90
2023-05-24T19:24:29.619Z,99.90
2023-05-24T19:26:58.216Z,99.90
2023-05-24T19:29:29.276Z,1.00
2023-05-24T19:31:59.262Z,1.00
2023-05-24T19:34:28.604Z,18.40
2023-05-24T19:36:57.036Z,99.90
2023-05-24T19:39:25.930Z,99.90
2023-05-24T19:41:54.247Z,99.90
2023-05-24T19:44:22.685Z,99.90
2023-05-24T19:46:51.045Z,99.90
2023-05-24T19:49:20.937Z,1.00
2023-05-24T19:51:49.250Z,1.00
2023-05-24T19:54:17.576Z,1.00
2023-05-24T19:56:49.804Z,1.00
2023-05-24T19:59:18.395Z,1.00
2023-05-24T20:01:46.964Z,1.00
2023-05-24T20:04:15.902Z,1.00
2023-05-24T20:06:45.802Z,1.00
2023-05-24T20:09:18.610Z,1.00
2023-05-24T20:11:46.979Z,1.00
2023-05-24T20:14:15.830Z,1.00
2023-05-24T20:16:44.254Z,1.00
2023-05-24T20:19:13.469Z,99.90
2023-05-24T20:21:41.807Z,1.00
2023-05-24T20:24:14.689Z,1.00
2023-05-24T20:26:43.163Z,1.00
2023-05-24T20:29:21.354Z,1.00
2023-05-24T20:31:49.750Z,1.00
2023-05-24T20:34:18.115Z,99.90
2023-05-24T20:36:46.871Z,99.90
2023-05-24T20:39:17.750Z,99.90
2023-05-24T20:41:50.640Z,99.90
2023-05-24T20:44:18.965Z,99.90
2023-05-24T20:46:48.548Z,99.90
2023-05-24T20:49:16.929Z,99.90
2023-05-24T20:51:45.905Z,99.90
2023-05-24T20:54:16.835Z,99.90
2023-05-24T20:56:45.174Z,99.90
2023-05-24T20:59:13.632Z,99.90
2023-05-24T21:01:42.254Z,99.90
2023-05-24T21:04:10.887Z,99.90
2023-05-24T21:06:40.135Z,99.90
2023-05-24T21:09:08.544Z,99.90
2023-05-24T21:11:38.464Z,99.90
2023-05-24T21:14:06.761Z,99.90
2023-05-24T21:16:35.107Z,99.90
2023-05-24T21:19:03.845Z,99.90
2023-05-24T21:21:32.303Z,99.90
2023-05-24T21:24:00.948Z,99.90
2023-05-24T21:26:29.329Z,99.90
2023-05-24T21:28:59.218Z,99.90
2023-05-24T21:31:29.898Z,99.90
2023-05-24T21:33:58.552Z,99.90
2023-05-24T21:36:27.085Z,99.90
2023-05-24T21:38:56.905Z,99.90
2023-05-24T21:41:25.442Z,99.90
2023-05-24T21:43:53.921Z,99.90
2023-05-24T21:46:23.640Z,99.90
2023-05-24T21:48:52.104Z,99.90
2023-05-24T21:51:20.463Z,99.90
2023-05-24T21:53:48.743Z,99.90
2023-05-24T21:56:17.549Z,99.90
2023-05-24T21:58:46.093Z,99.90
2023-05-24T22:01:14.878Z,99.90
2023-05-24T22:03:44.698Z,99.90
2023-05-24T22:08:47.154Z,99.90
2023-05-24T22:11:15.576Z,99.90
2023-05-24T22:13:43.804Z,99.90
2023-05-24T22:16:12.078Z,99.90
2023-05-24T22:18:40.329Z,99.90
2023-05-24T22:21:09.974Z,99.90
2023-05-24T22:23:38.185Z,99.90
2023-05-24T22:26:06.767Z,99.90
2023-05-24T22:28:53.825Z,99.90
2023-05-24T22:31:23.863Z,99.90
2023-05-24T22:33:52.367Z,99.90
2023-05-24T22:36:22.129Z,99.90
2023-05-24T22:38:50.360Z,99.90
2023-05-24T22:41:18.612Z,99.90
2023-05-24T22:43:46.847Z,99.90
2023-05-24T22:46:15.167Z,99.90
2023-05-24T22:48:43.463Z,99.90
2023-05-24T22:51:12.427Z,99.90
2023-05-24T22:53:42.073Z,99.90
2023-05-24T22:56:10.574Z,99.90
2023-05-24T22:58:39.192Z,99.90
2023-05-24T23:01:07.762Z,99.90
2023-05-24T23:03:36.483Z,99.90
2023-05-24T23:06:05.544Z,99.90
2023-05-24T23:08:34.758Z,99.90
2023-05-24T23:11:10.172Z,99.90
2023-05-24T23:13:42.057Z,99.90
2023-05-24T23:16:10.320Z,99.90
2023-05-24T23:18:42.777Z,99.90
2023-05-24T23:21:11.299Z,99.90
2023-05-24T23:23:40.389Z,99.90
2023-05-24T23:26:10.365Z,99.90
2023-05-24T23:28:38.589Z,99.90
2023-05-24T23:31:06.976Z,99.90
2023-05-24T23:33:35.190Z,99.90
2023-05-24T23:36:03.527Z,99.90
2023-05-24T23:38:32.244Z,99.90
2023-05-24T23:41:00.614Z,99.90
2023-05-24T23:43:30.983Z,1.00
2023-05-24T23:45:59.182Z,1.00
2023-05-24T23:48:27.388Z,1.00
2023-05-24T23:50:55.624Z,1.00
2023-05-24T23:53:23.900Z,1.00
2023-05-24T23:55:52.120Z,1.00
2023-05-24T23:58:20.409Z,1.00
